createdAt,value
2023-09-10T00:04:24.308Z,14.36
2023-09-10T00:09:27.600Z,14.34
2023-09-10T00:14:31.591Z,14.32
2023-09-10T00:19:34.964Z,14.21
2023-09-10T00:24:37.779Z,14.07
2023-09-10T00:29:40.832Z,14.00
2023-09-10T00:34:42.791Z,13.95
2023-09-10T00:39:45.983Z,13.85
2023-09-10T00:44:48.743Z,13.79
2023-09-10T00:49:51.615Z,13.81
2023-09-10T00:54:54.327Z,13.85
2023-09-10T00:59:59.179Z,13.86
2023-09-10T01:05:04.108Z,13.87
2023-09-10T01:10:08.296Z,13.81
2023-09-10T01:15:30.207Z,13.70
2023-09-10T01:21:06.143Z,13.58
2023-09-10T01:26:10.133Z,13.53
2023-09-10T01:31:12.879Z,13.50
2023-09-10T01:36:31.845Z,13.48
2023-09-10T01:41:37.017Z,13.40
2023-09-10T01:46:41.970Z,13.34
2023-09-10T01:51:45.516Z,13.30
2023-09-10T01:56:47.999Z,13.21
2023-09-10T02:01:50.860Z,13.11
2023-09-10T02:06:55.100Z,13.11
2023-09-10T02:11:58.752Z,13.11
2023-09-10T02:17:03.334Z,13.10
2023-09-10T02:22:06.948Z,13.05
2023-09-10T02:27:10.992Z,12.99
2023-09-10T02:32:13.918Z,12.91
2023-09-10T02:37:16.977Z,12.89
2023-09-10T02:42:19.781Z,12.83
2023-09-10T02:47:22.919Z,12.79
2023-09-10T02:52:27.673Z,12.78
2023-09-10T02:57:30.325Z,12.74
2023-09-10T03:02:33.261Z,12.61
2023-09-10T03:07:36.927Z,12.51
2023-09-10T03:12:39.915Z,12.50
2023-09-10T03:17:42.475Z,12.56
2023-09-10T03:22:46.264Z,12.53
2023-09-10T03:27:49.529Z,12.43
2023-09-10T03:32:53.150Z,12.34
2023-09-10T03:37:56.284Z,12.32
2023-09-10T03:42:59.537Z,12.33
2023-09-10T03:48:03.381Z,12.32
2023-09-10T03:53:06.734Z,12.24
2023-09-10T03:58:11.120Z,12.17
2023-09-10T04:03:14.693Z,12.14
2023-09-10T04:08:18.470Z,12.10
2023-09-10T04:13:21.817Z,12.07
2023-09-10T04:18:25.462Z,12.02
2023-09-10T04:23:29.120Z,11.88
2023-09-10T04:28:32.358Z,11.76
2023-09-10T04:33:36.419Z,11.69
2023-09-10T04:38:40.456Z,11.66
2023-09-10T04:43:43.648Z,11.68
2023-09-10T04:48:46.957Z,11.71
2023-09-10T04:53:53.558Z,11.75
2023-09-10T04:58:56.864Z,11.85
2023-09-10T05:04:00.581Z,11.92
2023-09-10T05:09:05.003Z,12.03
2023-09-10T05:14:08.628Z,12.16
2023-09-10T05:19:11.704Z,12.31
2023-09-10T05:24:14.110Z,12.51
2023-09-10T05:29:16.365Z,12.72
2023-09-10T05:34:20.404Z,12.96
2023-09-10T05:39:24.148Z,13.26
2023-09-10T05:44:26.833Z,13.57
2023-09-10T05:49:29.490Z,13.92
2023-09-10T05:54:32.275Z,14.23
2023-09-10T05:59:34.811Z,14.48
2023-09-10T06:04:37.295Z,14.73
2023-09-10T06:09:39.477Z,15.01
2023-09-10T06:14:43.541Z,15.29
2023-09-10T06:19:49.629Z,15.57
2023-09-10T06:24:53.025Z,15.82
2023-09-10T06:29:55.899Z,16.13
2023-09-10T06:34:59.243Z,16.45
2023-09-10T06:40:02.479Z,16.80
2023-09-10T06:45:05.428Z,17.25
2023-09-10T06:50:08.277Z,17.65
2023-09-10T06:55:11.917Z,18.04
2023-09-10T07:00:15.374Z,18.60
2023-09-10T07:05:17.962Z,19.60
2023-09-10T07:10:23.855Z,20.80
2023-09-10T07:15:26.818Z,22.31
2023-09-10T07:20:29.523Z,23.95
2023-09-10T07:25:31.718Z,25.32
2023-09-10T07:30:36.614Z,26.08
2023-09-10T07:35:40.476Z,26.49
2023-09-10T07:40:43.825Z,26.80
2023-09-10T07:45:48.517Z,27.17
2023-09-10T07:50:57.601Z,27.80
2023-09-10T07:56:01.353Z,28.07
2023-09-10T08:01:05.050Z,27.91
2023-09-10T08:06:08.398Z,27.95
2023-09-10T08:11:11.719Z,28.02
2023-09-10T08:16:16.600Z,28.04
2023-09-10T08:21:21.216Z,28.01
2023-09-10T08:26:25.486Z,28.04
2023-09-10T08:31:28.553Z,28.11
2023-09-10T08:36:32.606Z,28.11
2023-09-10T08:41:48.357Z,28.10
2023-09-10T08:46:53.357Z,28.06
2023-09-10T08:51:57.527Z,28.17
2023-09-10T08:57:00.900Z,28.35
2023-09-10T09:02:03.527Z,28.32
2023-09-10T09:07:10.371Z,28.44
2023-09-10T09:12:14.898Z,28.50
2023-09-10T09:17:21.644Z,28.62
2023-09-10T09:22:29.617Z,28.70
2023-09-10T09:27:35.064Z,28.62
2023-09-10T09:32:41.020Z,28.57
2023-09-10T09:37:44.939Z,28.69
2023-09-10T09:42:48.204Z,28.91
2023-09-10T09:47:52.212Z,29.13
2023-09-10T09:52:56.823Z,29.21
2023-09-10T09:57:59.322Z,29.20
2023-09-10T10:03:03.955Z,29.20
2023-09-10T10:08:07.783Z,29.20
2023-09-10T10:13:10.947Z,29.39
2023-09-10T10:18:16.308Z,29.56
2023-09-10T10:23:25.968Z,29.88
2023-09-10T10:28:31.915Z,29.98
2023-09-10T10:33:38.492Z,30.03
2023-09-10T10:38:45.902Z,30.05
2023-09-10T10:43:54.021Z,30.02
2023-09-10T10:49:02.296Z,29.87
2023-09-10T10:54:05.006Z,29.97
2023-09-10T10:59:08.046Z,30.29
2023-09-10T11:04:20.202Z,30.38
2023-09-10T11:09:36.526Z,30.34
2023-09-10T11:14:58.109Z,30.35
2023-09-10T11:20:01.602Z,30.39
2023-09-10T11:25:08.753Z,30.57
2023-09-10T11:30:21.328Z,30.64
2023-09-10T11:35:23.671Z,30.60
2023-09-10T11:40:26.573Z,30.80
2023-09-10T11:45:33.297Z,30.86
2023-09-10T11:50:36.480Z,30.88
2023-09-10T11:55:39.367Z,30.86
2023-09-10T12:00:44.024Z,30.96
2023-09-10T12:05:47.388Z,31.04
2023-09-10T12:10:55.416Z,31.04
2023-09-10T12:15:57.922Z,31.11
2023-09-10T12:21:01.319Z,31.12
2023-09-10T12:26:05.070Z,31.12
2023-09-10T12:31:07.721Z,30.99
2023-09-10T12:36:10.742Z,30.88
2023-09-10T12:41:17.590Z,30.64
2023-09-10T12:46:20.229Z,30.63
2023-09-10T12:51:22.578Z,30.68
2023-09-10T12:56:25.369Z,30.69
2023-09-10T13:01:28.677Z,30.60
2023-09-10T13:06:31.422Z,30.67
2023-09-10T13:11:35.257Z,30.63
2023-09-10T13:16:39.187Z,30.38
2023-09-10T13:21:42.861Z,30.42
2023-09-10T13:26:45.958Z,30.51
2023-09-10T13:31:48.937Z,30.61
2023-09-10T13:36:52.722Z,30.59
2023-09-10T13:41:56.334Z,30.53
2023-09-10T13:46:59.477Z,30.43
2023-09-10T13:52:01.783Z,30.38
2023-09-10T13:57:05.160Z,30.35
2023-09-10T14:02:07.796Z,30.28
2023-09-10T14:07:10.289Z,30.24
2023-09-10T14:12:12.688Z,30.28
2023-09-10T14:17:15.117Z,30.07
2023-09-10T14:22:17.776Z,29.84
2023-09-10T14:27:20.686Z,29.82
2023-09-10T14:32:23.234Z,29.86
2023-09-10T14:37:26.616Z,29.89
2023-09-10T14:42:28.547Z,29.85
2023-09-10T14:47:36.229Z,29.74
2023-09-10T14:52:39.154Z,29.57
2023-09-10T14:57:43.179Z,29.28
2023-09-10T15:02:45.536Z,29.13
2023-09-10T15:07:48.169Z,29.18
2023-09-10T15:12:50.388Z,29.10
2023-09-10T15:17:53.011Z,29.05
2023-09-10T15:22:55.302Z,28.87
2023-09-10T15:27:57.491Z,28.77
2023-09-10T15:33:01.130Z,28.71
2023-09-10T15:38:05.780Z,28.59
2023-09-10T15:43:08.892Z,28.46
2023-09-10T15:48:12.783Z,28.31
2023-09-10T15:53:16.605Z,28.13
2023-09-10T15:58:20.224Z,27.89
2023-09-10T16:03:24.585Z,27.65
2023-09-10T16:08:31.332Z,27.40
2023-09-10T16:13:35.442Z,27.11
2023-09-10T16:18:39.232Z,26.81
2023-09-10T16:23:43.945Z,26.56
2023-09-10T16:28:48.718Z,26.33
2023-09-10T16:33:52.723Z,26.09
2023-09-10T16:38:57.052Z,25.80
2023-09-10T16:44:02.126Z,25.52
2023-09-10T16:49:06.983Z,25.21
2023-09-10T16:54:09.968Z,24.91
2023-09-10T16:59:20.785Z,24.64
2023-09-10T17:04:31.716Z,24.38
2023-09-10T17:09:34.887Z,24.12
2023-09-10T17:14:37.266Z,23.88
2023-09-10T17:19:39.513Z,23.54
2023-09-10T17:24:41.512Z,23.09
2023-09-10T17:29:43.874Z,22.85
2023-09-10T17:34:45.980Z,22.65
2023-09-10T17:39:48.157Z,22.47
2023-09-10T17:44:52.139Z,22.25
2023-09-10T17:50:05.356Z,22.06
2023-09-10T17:55:12.096Z,21.77
2023-09-10T18:00:14.686Z,21.46
2023-09-10T18:05:17.389Z,21.30
2023-09-10T18:10:21.441Z,21.16
2023-09-10T18:15:25.091Z,20.92
2023-09-10T18:20:28.432Z,20.63
2023-09-10T18:25:32.112Z,20.37
2023-09-10T18:30:34.587Z,20.24
2023-09-10T18:35:38.107Z,20.11
2023-09-10T18:40:46.242Z,19.99
2023-09-10T18:45:49.186Z,19.68
2023-09-10T18:50:53.187Z,19.41
2023-09-10T18:55:57.414Z,19.31
2023-09-10T19:01:03.007Z,19.10
2023-09-10T19:06:07.246Z,18.89
2023-09-10T19:11:11.242Z,18.68
2023-09-10T19:16:18.851Z,18.54
2023-09-10T19:21:23.121Z,18.55
2023-09-10T19:26:26.758Z,18.56
2023-09-10T19:31:35.472Z,18.49
2023-09-10T19:36:39.276Z,18.32
2023-09-10T19:41:44.261Z,18.27
2023-09-10T19:46:48.166Z,18.21
2023-09-10T19:51:55.145Z,18.01
2023-09-10T19:57:00.037Z,17.91
2023-09-10T20:02:06.192Z,17.80
2023-09-10T20:07:10.013Z,17.68
2023-09-10T20:12:14.166Z,17.52
2023-09-10T20:17:18.837Z,17.44
2023-09-10T20:22:22.100Z,17.37
2023-09-10T20:27:26.266Z,17.29
2023-09-10T20:32:30.522Z,17.19
2023-09-10T20:37:33.318Z,17.13
2023-09-10T20:42:37.465Z,16.96
2023-09-10T20:47:40.717Z,16.80
2023-09-10T20:52:47.634Z,16.69
2023-09-10T20:57:51.079Z,16.52
2023-09-10T21:02:58.570Z,16.32
2023-09-10T21:08:02.024Z,16.26
2023-09-10T21:13:12.007Z,16.19
2023-09-10T21:18:16.349Z,16.13
2023-09-10T21:23:20.893Z,16.01
2023-09-10T21:28:25.022Z,15.95
2023-09-10T21:33:28.546Z,15.95
2023-09-10T21:38:32.362Z,15.80
2023-09-10T21:43:36.043Z,15.76
2023-09-10T21:48:39.757Z,15.70
2023-09-10T21:53:44.218Z,15.62
2023-09-10T21:58:47.605Z,15.59
2023-09-10T22:03:50.529Z,15.58
2023-09-10T22:08:54.258Z,15.56
2023-09-10T22:13:58.116Z,15.41
2023-09-10T22:19:02.571Z,15.19
2023-09-10T22:24:06.240Z,15.06
2023-09-10T22:29:09.697Z,14.99
2023-09-10T22:34:13.086Z,14.97
2023-09-10T22:39:17.261Z,14.96
2023-09-10T22:44:19.386Z,14.93
2023-09-10T22:49:22.537Z,14.88
2023-09-10T22:54:25.409Z,14.76
2023-09-10T22:59:28.367Z,14.71
2023-09-10T23:04:31.206Z,14.64
2023-09-10T23:09:35.310Z,14.60
2023-09-10T23:14:39.712Z,14.59
2023-09-10T23:19:42.567Z,14.53
2023-09-10T23:24:47.573Z,14.47
2023-09-10T23:29:50.934Z,14.44
2023-09-10T23:34:54.798Z,14.36
2023-09-10T23:39:59.374Z,14.31
2023-09-10T23:45:03.267Z,14.26
2023-09-10T23:50:07.341Z,14.17
2023-09-10T23:55:10.040Z,14.09
